Pflugerville's Hourly Summary for Thursday, May 10, 2018
Hour Temp
(f)
RH
(%)
Solar Rad.
(MJ/m2)
Rainfall
(in)
Wind
(mph)
5/10/2018 12:00 AM 71 47 0 0 7
5/10/2018 1:00 AM 69 60 0 0 6.59
5/10/2018 2:00 AM 67 76 0 0 5.94
5/10/2018 3:00 AM 66 100 0 0 7.35
5/10/2018 4:00 AM 64 100 0 0 6.23
5/10/2018 5:00 AM 64 100 0 0 4.01
5/10/2018 6:00 AM 64 100 0 0 4.36
5/10/2018 7:00 AM 64 100 0 0 6.55
5/10/2018 8:00 AM 65 100 0.13 0 8.78
5/10/2018 9:00 AM 67 100 0.64 0 9.69
5/10/2018 10:00 AM 71 100 0.8 0 12.18
5/10/2018 11:00 AM 74 84 2.23 0 12.18
5/10/2018 12:00 PM 77 63 2.88 0 11.92
5/10/2018 1:00 PM 80 52 3.46 0 13.04
5/10/2018 2:00 PM 81 47 3.67 0 12.07
5/10/2018 3:00 PM 83 43 3.2 0 11.66
5/10/2018 4:00 PM 84 40 2.21 0 11.38
5/10/2018 5:00 PM 85 40 1.24 0 9.73
5/10/2018 6:00 PM 85 38 1.81 0 9.1
5/10/2018 7:00 PM 85 37 0.85 0 9.88
5/10/2018 8:00 PM 83 37 0.4 0 6.88
5/10/2018 9:00 PM 80 46 0.02 0 6.49
5/10/2018 10:00 PM 77 65 0 0 8.49
5/10/2018 11:00 PM 75 72 0 0 10
Data Summary 74 68 23.54 0.00 8.81